Terminal Aerodrome Forecast
Issued by NWS Pendleton, OR

Home | Current Version | Previous Version | Text Only | Print | Product List | Glossary On
Versions: 1 2 3 4 5 6 7 8 9 10 11 12 13 14 15
000
FTUS46 KPDT 300500
TAFPDT
TAF
KPDT 300520Z 3006/3106 27011KT P6SM BKN150
     FM300900 23008KT P6SM SCT150
     FM301700 26012G18KT P6SM SCT150
     FM302100 28015G25KT P6SM SCT120 BKN150=

USA.gov is the U.S. government's official web portal to all federal, state and local government web resources and services.